»·PEaware :: WJA933 KBFI-KPDX

WJA933 :: KBFI-KPDX

FLIGHT INFORMATION

Flight Status: Arrived
Operator:
Westjet Airlines
More flights by this operator :: More flights under this callsign
Pilot: Ben L. (6391)
Aircraft: BOEING 737-200
(B732)
More flights by this aircraft type
Origin: KBFI Boeing Field/King Co Intl
United States
Destination: KPDX Portland Intl
United States
More flights between these airports :: More routes between these airports
Route: +KENT8 SEA HELNS6
File this flight plan on PilotEdge
Remarks:
Altitude:
(Current/Filed)
19,000ft
Speed:
(Current/Filed)
380kts
Departed: 28-Mar-20 11:27 AM
Arrived: 28-Mar-20 11:58 AM
Distance/Time
Traveled:
117nm/0:31
Distance/Time
To Go:
Arrived

Flight Plot

Page will automatically refresh every two minutes.

Flight plan parsing failed; only flown route is shown


Map Options




Map Legend


Flown Route
Filed Route
Departure Airport
Arrival Airport
Navaid (VOR, NDB)
Fix

Horizontal Profiles

Position Reports

Time Latitude Longitude Heading Altitude Ground
Speed
28-Mar-20 10:47 47.535391 -122.311556 59 27ft 0kts
28-Mar-20 10:48 47.535391 -122.311556 59 27ft 0kts
28-Mar-20 10:49 47.535391 -122.311556 59 27ft 0kts
28-Mar-20 10:50 47.535391 -122.311556 59 27ft 0kts
28-Mar-20 10:51 47.535391 -122.311556 59 27ft 0kts
28-Mar-20 10:52 47.535391 -122.311556 59 27ft 0kts
28-Mar-20 10:53 47.535391 -122.311556 59 27ft 0kts
28-Mar-20 10:54 47.535391 -122.311556 59 27ft 0kts
28-Mar-20 10:55 47.535391 -122.311556 59 27ft 0kts
28-Mar-20 10:56 47.535391 -122.311556 59 27ft 0kts
28-Mar-20 10:57 47.535391 -122.311556 59 27ft 0kts
28-Mar-20 10:58 47.535391 -122.311556 59 27ft 0kts
28-Mar-20 10:59 47.535391 -122.311556 59 27ft 0kts
28-Mar-20 11:00 47.535391 -122.311556 59 27ft 0kts
28-Mar-20 11:01 47.535391 -122.311556 59 27ft 0kts
28-Mar-20 11:02 47.535391 -122.311556 59 27ft 0kts
28-Mar-20 11:03 47.535391 -122.311556 59 27ft 0kts
28-Mar-20 11:04 47.535391 -122.311556 59 27ft 0kts
28-Mar-20 11:05 47.535391 -122.311556 59 27ft 0kts
28-Mar-20 11:06 47.535391 -122.311556 59 27ft 0kts
28-Mar-20 11:07 47.535391 -122.311556 59 27ft 0kts
28-Mar-20 11:08 47.535391 -122.311556 59 27ft 0kts
28-Mar-20 11:09 47.535391 -122.311556 59 27ft 0kts
28-Mar-20 11:11 47.535667 -122.311345 356 27ft 9kts
28-Mar-20 11:12 47.538200 -122.313431 331 27ft 0kts
28-Mar-20 11:13 47.538200 -122.313431 331 27ft 0kts
28-Mar-20 11:14 47.538200 -122.313431 331 27ft 0kts
28-Mar-20 11:15 47.538392 -122.313589 331 27ft 0kts
28-Mar-20 11:16 47.538871 -122.313852 359 27ft 0kts
28-Mar-20 11:17 47.539237 -122.313542 44 27ft 0kts
28-Mar-20 11:18 47.539325 -122.313410 45 27ft 0kts
28-Mar-20 11:19 47.539793 -122.312395 59 27ft 0kts
28-Mar-20 11:20 47.539793 -122.312395 59 27ft 0kts
28-Mar-20 11:21 47.539793 -122.312395 59 27ft 0kts
28-Mar-20 11:22 47.539720 -122.310717 152 27ft 0kts
28-Mar-20 11:23 47.539721 -122.310717 152 27ft 0kts
28-Mar-20 11:24 47.539720 -122.310717 152 27ft 0kts
28-Mar-20 11:25 47.539720 -122.310717 152 27ft 0kts
28-Mar-20 11:26 47.539273 -122.310355 151 27ft 29kts
28-Mar-20 11:27 47.508446 -122.282146 147 1428ft 170kts
28-Mar-20 11:28 47.468251 -122.241838 150 3888ft 209kts
28-Mar-20 11:28 47.421137 -122.198041 150 5615ft 256kts
28-Mar-20 11:29 47.359460 -122.139875 150 7714ft 267kts
28-Mar-20 11:30 47.293303 -122.095354 194 9400ft 265kts
28-Mar-20 11:32 47.212573 -122.143707 205 11675ft 273kts
28-Mar-20 11:32 47.152692 -122.181433 205 12947ft 297kts
28-Mar-20 11:33 47.072876 -122.231433 205 13991ft 330kts
28-Mar-20 11:34 46.990704 -122.286130 193 15844ft 329kts
28-Mar-20 11:35 46.899982 -122.299762 189 17087ft 341kts
28-Mar-20 11:36 46.807434 -122.314041 188 18194ft 351kts
28-Mar-20 11:37 46.708182 -122.321645 184 19052ft 367kts
28-Mar-20 11:38 46.601790 -122.320042 181 19075ft 397kts
28-Mar-20 11:39 46.490160 -122.312761 179 19084ft 409kts
28-Mar-20 11:40 46.379950 -122.305245 180 15911ft 389kts
28-Mar-20 11:41 46.275634 -122.301941 182 13295ft 361kts
28-Mar-20 11:42 46.183804 -122.330375 206 12138ft 325kts
28-Mar-20 11:43 46.102342 -122.393191 209 11973ft 329kts
28-Mar-20 11:44 46.019941 -122.448013 202 12000ft 327kts
28-Mar-20 11:45 45.935618 -122.489834 200 11971ft 290kts
28-Mar-20 11:46 45.875554 -122.536845 246 10543ft 267kts
28-Mar-20 11:47 45.886039 -122.631888 285 8716ft 274kts
28-Mar-20 11:48 45.872260 -122.717283 202 7080ft 248kts
28-Mar-20 11:49 45.814394 -122.742248 200 6406ft 206kts
28-Mar-20 11:50 45.762445 -122.776526 204 4313ft 207kts
28-Mar-20 11:51 45.711013 -122.812397 204 2120ft 197kts
28-Mar-20 11:52 45.671713 -122.793656 144 1967ft 145kts
28-Mar-20 11:53 45.645391 -122.748658 125 2037ft 159kts
28-Mar-20 11:54 45.623538 -122.695795 124 1064ft 138kts
28-Mar-20 11:55 45.606320 -122.649409 120 498ft 135kts
28-Mar-20 11:56 45.588661 -122.604854 119 38ft 92kts
28-Mar-20 11:57 45.586517 -122.597714 50 38ft 0kts
28-Mar-20 11:58 45.586769 -122.597316 38 38ft 0kts
28-Mar-20 11:59 45.587634 -122.595622 35 38ft 14kts
28-Mar-20 12:00 45.587995 -122.595397 21 38ft 0kts
28-Mar-20 12:01 45.587995 -122.595397 21 38ft 0kts
28-Mar-20 12:02 45.587995 -122.595397 21 38ft 0kts
28-Mar-20 12:03 45.587995 -122.595397 21 38ft 0kts

Navigation Log

Ident Type
Flight plan parsing failed, navigation log unavailable